Terminal Aerodrome Forecast
Issued by NWS Bismarck, ND

Home | Current Version | Previous Version | Text Only | Print | Product List | Glossary Off
Versions: 1 2 3 4 5 6 7 8 9 10 11 12 13 14 15 16

000
FTUS43 KBIS 232006 AAA
TAFBIS
TAF AMD
KBIS 232006Z 2320/2418 30014G20KT P6SM SCT035 SCT070
      TEMPO 2320/2322 BKN035
     FM240300 29009KT P6SM SCT250
     FM240900 28005KT P6SM SCT100
     FM241500 30009KT P6SM SCT070=

USA.gov is the U.S. government's official web portal to all federal, state and local government web resources and services.